• Join FlightAware (Why Join?)
  • Login
  • US Flag 
09:16AM EDT


 

Airport Tracker/Info


-or-


 

Live Flight TrackerFlight Track Log ✈ N50545 ✈ 12-Jul-2013 ✈ KPNS - 06A

Flight Track Log - Related Links

Times and Time Zones

All times are in EDT time to prevent confusion due to time zone crossing. See the N50545 flight status page for this flight to view local times or setup timezone preferences in your user account.

Time Position Orientation Groundspeed Altitude Reporting Facility
EDT Latitude Longitude Course Direction KTS MPH feet Rate Location/Type
04:20PM 30.4714 -87.2017 294° West 84 97 500  Level Jacksonville Center
04:21PM 30.4808 -87.2261 294° West 93 107 1,100 540 Climbing Jacksonville Center
04:22PM 30.4992 -87.2414 324° Northwest 95 109 1,700 540 Climbing Jacksonville Center
04:23PM 30.5261 -87.2500 345° North 91 105 2,200 540 Climbing Jacksonville Center
04:24PM 30.5539 -87.2319 29° Northeast 88 101 2,900 540 Climbing Jacksonville Center
04:25PM 30.5708 -87.2231 24° Northeast 88 101 3,400 540 Climbing Jacksonville Center
04:26PM 30.5944 -87.2047 34° Northeast 85 98 4,000 480 Climbing Jacksonville Center
04:27PM 30.6156 -87.1914 29° Northeast 82 94 4,500 420 Climbing Jacksonville Center
04:28PM 30.6328 -87.1775 35° Northeast 84 97 4,900 360 Climbing Jacksonville Center
04:29PM 30.6522 -87.1639 31° Northeast 79 91 5,300 360 Climbing Jacksonville Center
04:30PM 30.6633 -87.1428 59° Northeast 82 94 5,600 300 Climbing Jacksonville Center
04:31PM 30.6825 -87.1267 36° Northeast 83 96 6,000 300 Climbing Jacksonville Center
04:32PM 30.7017 -87.1156 26° Northeast 79 91 6,300 240 Climbing Jacksonville Center
04:33PM 30.7231 -87.1019 29° Northeast 82 94 6,600 240 Climbing Jacksonville Center
04:34PM 30.7422 -87.0908 26° Northeast 77 89 6,900 180 Climbing Jacksonville Center
04:35PM 30.7656 -87.0797 22° Northeast 87 100 7,000  Climbing Jacksonville Center
04:36PM 30.7908 -87.0686 21° North 101 116 7,000  Level Jacksonville Center
04:37PM 30.8142 -87.0575 22° Northeast 102 117 7,000  Level Jacksonville Center
04:38PM 30.8397 -87.0417 28° Northeast 101 116 7,000 -60 Level Jacksonville Center
04:39PM 30.8653 -87.0258 28° Northeast 101 116 6,900 -60 Descending Jacksonville Center
04:40PM 30.8908 -87.0125 24° Northeast 98 113 6,900  Level Jacksonville Center
04:41PM 30.9164 -86.9992 24° Northeast 99 114 6,900  Level Jacksonville Center
04:42PM 30.9397 -86.9906 18° North 92 106 7,000  Climbing Jacksonville Center
04:43PM 30.9653 -86.9747 28° Northeast 101 116 7,000  Level Jacksonville Center
04:44PM 30.9928 -86.9614 23° Northeast 100 115 7,000  Level Jacksonville Center
04:45PM 31.0161 -86.9503 22° Northeast 101 116 7,000  Level Jacksonville Center
04:47PM 31.0544 -86.9275 27° Northeast 103 119 7,100  Climbing Jacksonville Center
04:48PM 31.0797 -86.9142 24° Northeast 103 119 7,100  Level Jacksonville Center
04:49PM 31.1053 -86.9031 20° North 98 113 7,100  Level Jacksonville Center
04:50PM 31.1306 -86.8897 24° Northeast 93 107 7,100  Level Jacksonville Center
04:51PM 31.1542 -86.8761 26° Northeast 93 107 7,100  Level Jacksonville Center
04:52PM 31.1794 -86.8650 21° North 93 107 7,100  Level Jacksonville Center
04:53PM 31.2050 -86.8539 20° North 93 107 7,100  Level Jacksonville Center
04:54PM 31.2283 -86.8403 27° Northeast 93 107 7,100  Level Jacksonville Center
04:55PM 31.2581 -86.8244 24° Northeast 98 113 7,100  Level Jacksonville Center
04:56PM 31.2919 -86.8067 24° Northeast 98 113 7,100  Level Jacksonville Center
04:57PM 31.3153 -86.7931 26° Northeast 98 113 7,100  Level Jacksonville Center
04:58PM 31.3389 -86.7744 34° Northeast 98 113 7,100  Level Jacksonville Center
04:59PM 31.3542 -86.7508 53° Northeast 92 106 7,100  Level Jacksonville Center
05:00PM 31.3717 -86.7247 52° Northeast 92 106 7,100  Level Jacksonville Center
05:01PM 31.3892 -86.6986 52° Northeast 92 106 7,100  Level Jacksonville Center
05:02PM 31.4086 -86.6753 46° Northeast 97 112 7,100 -60 Level Jacksonville Center
05:03PM 31.4261 -86.6492 52° Northeast 100 115 7,000 -60 Descending Jacksonville Center
05:04PM 31.4456 -86.6231 49° Northeast 107 123 7,000  Level Jacksonville Center
05:05PM 31.4672 -86.5972 45° Northeast 102 117 7,100  Climbing Jacksonville Center
05:06PM 31.4869 -86.5711 48° Northeast 97 112 7,000  Descending Jacksonville Center
05:07PM 31.5022 -86.5497 50° Northeast 102 117 7,100  Climbing Jacksonville Center
05:08PM 31.5217 -86.5239 49° Northeast 102 117 7,100  Level Jacksonville Center
05:09PM 31.5433 -86.4978 46° Northeast 107 123 7,100 -60 Level Jacksonville Center
05:11PM 31.5650 -86.4622 54° Northeast 101 116 7,000 -60 Descending Jacksonville Center
05:12PM 31.5844 -86.4383 46° Northeast 102 117 7,000  Level Jacksonville Center
05:13PM 31.6061 -86.4100 48° Northeast 107 123 7,000 -60 Level Jacksonville Center
05:15PM 31.6483 -86.3771 34° Northeast  Level FlightAware Approximate
05:22PM 31.8037 -86.2554 34° Northeast  Level FlightAware Approximate
05:23PM 31.8258 -86.2380 34° Northeast  Level FlightAware Approximate
05:24PM 31.8480 -86.2206 34° Northeast  Level FlightAware Approximate
05:25PM 31.8702 -86.2032 34° Northeast  Level FlightAware Approximate
05:26PM 31.8924 -86.1858 34° Northeast  Level FlightAware Approximate
05:27PM 31.9146 -86.1683 34° Northeast  Level FlightAware Approximate
05:28PM 31.9368 -86.1489 37° Northeast  Level FlightAware Approximate
05:29PM 31.9582 -86.1301 37° Northeast  Level FlightAware Approximate
05:30PM 31.9796 -86.1113 37° Northeast  Level FlightAware Approximate
05:31PM 32.0009 -86.0925 37° Northeast  Level FlightAware Approximate
05:32PM 32.0223 -86.0737 37° Northeast  Level FlightAware Approximate
05:33PM 32.0437 -86.0549 37° Northeast  Level FlightAware Approximate
05:34PM 32.0650 -86.0360 37° Northeast  Level FlightAware Approximate
05:35PM 32.0863 -86.0172 37° Northeast  Level FlightAware Approximate
05:36PM 32.1077 -85.9983 37° Northeast  Level FlightAware Approximate
05:37PM 32.1291 -85.9794 37° Northeast  Level FlightAware Approximate
05:37PM 32.0500 -85.8333 40° Northeast 104 120 6,800  Level Atlanta TRACON
05:38PM 32.1504 -85.9606 37° Northeast  Level FlightAware Approximate
05:38PM 32.0833 -85.8333 360° North 110 127 6,200  Level Atlanta TRACON
05:39PM 32.1717 -85.9417 37° Northeast  Level FlightAware Approximate
05:39PM 32.1167 -85.8167 23° Northeast 110 127 5,200  Level Atlanta TRACON
05:40PM 32.1931 -85.9228 37° Northeast  Level FlightAware Approximate
05:40PM 32.1333 -85.8000 40° Northeast 101 116 5,100  Level Atlanta TRACON
05:41PM 32.2137 -85.9029 40° Northeast  Level FlightAware Approximate
05:41PM 32.1667 -85.8000 360° North 103 119 4,400  Level Atlanta TRACON
05:42PM 32.2341 -85.8826 40° Northeast  Level FlightAware Approximate
05:42PM 32.2000 -85.7833 23° Northeast 101 116 3,500  Level Atlanta TRACON
05:43PM 32.2167 -85.7667 40° Northeast 98 113 3,000 -240 Descending Atlanta TRACON
05:44PM 32.2333 -85.7667 360° North 88 101 3,100  Climbing Atlanta TRACON
05:45PM 32.2667 -85.7667 360° North 91 105 3,000  Descending Atlanta TRACON
05:46PM 32.2833 -85.7500 40° Northeast 94 108 3,100  Climbing Atlanta TRACON
05:47PM 32.3167 -85.7333 23° Northeast 96 110 3,100 -300 Level Atlanta TRACON
05:48PM 32.3333 -85.7333 360° North 97 112 2,600 -540 Descending Atlanta TRACON